Time;durP1;ratioP1;P1;durP2;ratioP2;P2;SDS_P1;SDS_P2;PMS_P1;PMS_P2;Temp;Humidity;BMP_temperature;BMP_pressure;BME280_temperature;BME280_humidity;BME280_pressure;Samples;Min_cycle;Max_cycle;Signal;HPM_P1;HPM_P2
2022/05/28 00:01:05;;;;;;;18.38;2.88;;;;;;;;;;4970246;28;20807;-63
2022/05/28 00:03:33;;;;;;;30.27;3.60;;;;;;;;;;4971182;28;20065;-65
2022/05/28 00:05:58;;;;;;;26.52;3.58;;;;;;;;;;4972974;28;20037;-64
2022/05/28 00:08:24;;;;;;;16.00;3.33;;;;;;;;;;4971267;28;20084;-64
2022/05/28 00:10:51;;;;;;;20.85;3.30;;;;;;;;;;4951204;28;20830;-64
2022/05/28 00:13:17;;;;;;;20.60;3.15;;;;;;;;;;4969141;28;20946;-63
2022/05/28 00:15:45;;;;;;;22.88;3.15;;;;;;;;;;4968411;28;20029;-64
2022/05/28 00:18:13;;;;;;;16.70;2.67;;;;;;;;;;4970526;28;20041;-64
2022/05/28 00:20:39;;;;;;;18.27;3.72;;;;;;;;;;4970909;28;20173;-65
2022/05/28 00:23:07;;;;;;;20.95;3.67;;;;;;;;;;4971327;28;20060;-65
2022/05/28 00:25:35;;;;;;;22.83;3.47;;;;;;;;;;4971903;28;20077;-66
2022/05/28 00:28:01;;;;;;;25.33;4.47;;;;;;;;;;4973394;28;20033;-63
2022/05/28 00:30:28;;;;;;;22.02;3.53;;;;;;;;;;4973123;28;20073;-65
2022/05/28 00:32:54;;;;;;;25.88;4.00;;;;;;;;;;4990115;28;20095;-64
2022/05/28 00:35:21;;;;;;;22.40;3.28;;;;;;;;;;4983802;28;20041;-65
2022/05/28 00:37:47;;;;;;;18.63;3.53;;;;;;;;;;5000423;28;20650;-65
2022/05/28 00:40:23;;;;;;;21.38;3.72;;;;;;;;;;4992648;28;20041;-65
2022/05/28 00:42:49;;;;;;;21.48;4.55;;;;;;;;;;4974917;28;20146;-63
2022/05/28 00:45:14;;;;;;;26.25;3.80;;;;;;;;;;4971654;28;22298;-65
2022/05/28 00:47:43;;;;;;;19.33;3.38;;;;;;;;;;4969837;28;20084;-65
2022/05/28 00:50:09;;;;;;;23.73;3.50;;;;;;;;;;4975491;28;20029;-64
2022/05/28 00:52:36;;;;;;;22.40;3.85;;;;;;;;;;4970925;28;20038;-65
2022/05/28 00:55:02;;;;;;;22.23;3.25;;;;;;;;;;4971165;28;20202;-66
2022/05/28 00:57:28;;;;;;;18.42;2.97;;;;;;;;;;4968511;28;20475;-65
2022/05/28 00:59:54;;;;;;;17.63;3.45;;;;;;;;;;4968718;28;20180;-66
2022/05/28 01:02:22;;;;;;;22.10;3.55;;;;;;;;;;4951662;28;20030;-65
2022/05/28 01:04:56;;;;;;;17.40;3.08;;;;;;;;;;4959137;28;21139;-64
2022/05/28 01:07:24;;;;;;;24.75;3.88;;;;;;;;;;4968872;28;20030;-62
2022/05/28 01:09:59;;;;;;;21.27;3.70;;;;;;;;;;4972579;28;20042;-64
2022/05/28 01:12:32;;;;;;;18.90;2.67;;;;;;;;;;4974069;28;20045;-63
2022/05/28 01:15:07;;;;;;;13.48;2.55;;;;;;;;;;4979432;28;20061;-66
2022/05/28 01:17:38;;;;;;;10.07;2.33;;;;;;;;;;4973412;28;20059;-63
2022/05/28 01:20:06;;;;;;;11.55;2.15;;;;;;;;;;4972074;28;20038;-62
2022/05/28 01:22:37;;;;;;;13.27;1.92;;;;;;;;;;4974946;28;20037;-65
2022/05/28 01:25:11;;;;;;;11.55;1.60;;;;;;;;;;4967155;28;21041;-63
2022/05/28 01:27:48;;;;;;;11.48;2.33;;;;;;;;;;4974866;28;20092;-64
2022/05/28 01:30:15;;;;;;;14.02;2.40;;;;;;;;;;4977276;28;20136;-64
2022/05/28 01:32:41;;;;;;;14.38;1.85;;;;;;;;;;4973267;28;20270;-65
2022/05/28 01:35:10;;;;;;;17.58;2.40;;;;;;;;;;4986990;28;20042;-65
2022/05/28 01:37:35;;;;;;;14.63;2.50;;;;;;;;;;4978087;28;20083;-62
2022/05/28 01:40:03;;;;;;;17.40;2.55;;;;;;;;;;4966563;28;20201;-64
2022/05/28 01:42:31;;;;;;;17.05;2.95;;;;;;;;;;4983255;28;20033;-63
2022/05/28 01:44:57;;;;;;;17.52;2.97;;;;;;;;;;4991843;28;20312;-65
2022/05/28 01:47:23;;;;;;;13.52;2.58;;;;;;;;;;4992826;28;20029;-63
2022/05/28 01:49:49;;;;;;;18.27;2.40;;;;;;;;;;4991764;28;20040;-66
2022/05/28 01:52:15;;;;;;;15.13;2.85;;;;;;;;;;4984160;28;20057;-66
2022/05/28 01:54:43;;;;;;;14.75;2.42;;;;;;;;;;5006200;28;20034;-62
2022/05/28 01:57:12;;;;;;;12.38;1.92;;;;;;;;;;4993151;28;20029;-65
2022/05/28 01:59:38;;;;;;;20.42;2.92;;;;;;;;;;4992559;28;20041;-62
2022/05/28 02:02:08;;;;;;;13.20;2.22;;;;;;;;;;4989825;28;20103;-64
2022/05/28 02:04:35;;;;;;;13.00;2.20;;;;;;;;;;4982291;28;20033;-64
2022/05/28 02:07:02;;;;;;;12.68;1.88;;;;;;;;;;4991080;28;20041;-67
2022/05/28 02:09:36;;;;;;;9.30;2.03;;;;;;;;;;4992907;28;20040;-64
2022/05/28 02:12:20;;;;;;;15.75;2.50;;;;;;;;;;4987620;28;20037;-64
2022/05/28 02:15:07;;;;;;;16.02;2.05;;;;;;;;;;4994721;28;20041;-62
2022/05/28 02:17:48;;;;;;;13.70;2.42;;;;;;;;;;4992369;28;20107;-65
2022/05/28 02:20:19;;;;;;;15.45;1.95;;;;;;;;;;4990626;28;21167;-66
2022/05/28 02:22:51;;;;;;;15.40;2.50;;;;;;;;;;4993266;28;20061;-63
2022/05/28 02:25:27;;;;;;;16.15;2.85;;;;;;;;;;4992931;28;20033;-68
2022/05/28 02:27:53;;;;;;;11.10;1.92;;;;;;;;;;5002857;28;20951;-69
2022/05/28 02:30:19;;;;;;;9.23;2.03;;;;;;;;;;5007018;28;20029;-70
2022/05/28 02:32:44;;;;;;;18.75;3.25;;;;;;;;;;5008691;28;20060;-70
2022/05/28 02:35:15;;;;;;;15.80;2.60;;;;;;;;;;5005205;28;20036;-70
2022/05/28 02:37:43;;;;;;;13.82;1.92;;;;;;;;;;5004884;28;20821;-70
2022/05/28 02:40:10;;;;;;;11.63;2.20;;;;;;;;;;4993772;28;20088;-66
2022/05/28 02:42:36;;;;;;;14.90;2.42;;;;;;;;;;4997618;28;20037;-70
2022/05/28 02:45:02;;;;;;;16.88;2.25;;;;;;;;;;4982872;28;20025;-69
2022/05/28 02:47:27;;;;;;;16.33;3.00;;;;;;;;;;4993232;28;20025;-70
2022/05/28 02:49:54;;;;;;;11.23;2.25;;;;;;;;;;5001115;28;20033;-70
2022/05/28 02:52:19;;;;;;;13.38;1.92;;;;;;;;;;5016032;28;20038;-72
2022/05/28 02:54:44;;;;;;;18.30;2.60;;;;;;;;;;5031842;28;20049;-71
2022/05/28 02:57:10;;;;;;;14.75;2.42;;;;;;;;;;5007141;28;20030;-69
2022/05/28 02:59:37;;;;;;;17.92;2.78;;;;;;;;;;4993855;28;20108;-69
2022/05/28 03:02:03;;;;;;;12.57;2.08;;;;;;;;;;4994619;28;20391;-71
2022/05/28 03:04:28;;;;;;;12.52;2.17;;;;;;;;;;5008088;28;20104;-72
2022/05/28 03:06:54;;;;;;;14.95;2.30;;;;;;;;;;4998302;28;20041;-68
2022/05/28 03:09:20;;;;;;;16.55;2.78;;;;;;;;;;4987372;28;20116;-69
2022/05/28 03:11:49;;;;;;;16.83;2.58;;;;;;;;;;4982391;28;20045;-71
2022/05/28 03:14:14;;;;;;;12.18;1.88;;;;;;;;;;4984769;28;20049;-72
2022/05/28 03:16:42;;;;;;;13.18;1.90;;;;;;;;;;5003354;28;20037;-71
2022/05/28 03:19:08;;;;;;;14.98;1.95;;;;;;;;;;4998612;28;20818;-71
2022/05/28 03:21:33;;;;;;;12.10;1.95;;;;;;;;;;4985912;28;20156;-69
2022/05/28 03:24:00;;;;;;;11.20;2.13;;;;;;;;;;4984545;28;20041;-72
2022/05/28 03:26:26;;;;;;;19.27;2.88;;;;;;;;;;4986860;28;20041;-70
2022/05/28 03:28:53;;;;;;;13.77;2.65;;;;;;;;;;4982545;28;20030;-72
2022/05/28 03:31:20;;;;;;;11.80;1.92;;;;;;;;;;4976904;28;20139;-71
2022/05/28 03:33:46;;;;;;;14.23;2.20;;;;;;;;;;4969069;28;20769;-70
2022/05/28 03:36:12;;;;;;;16.50;2.03;;;;;;;;;;4993806;28;20037;-71
2022/05/28 03:38:37;;;;;;;9.35;2.05;;;;;;;;;;4983559;28;20045;-69
2022/05/28 03:41:04;;;;;;;22.38;2.75;;;;;;;;;;4980311;28;20034;-73
2022/05/28 03:43:30;;;;;;;17.52;2.67;;;;;;;;;;4991286;28;20045;-72
2022/05/28 03:45:55;;;;;;;12.43;2.60;;;;;;;;;;4992703;28;20201;-71
2022/05/28 03:48:24;;;;;;;19.23;2.85;;;;;;;;;;4986336;28;20541;-70
2022/05/28 03:50:49;;;;;;;18.63;2.33;;;;;;;;;;5016034;28;20871;-73
2022/05/28 03:53:16;;;;;;;12.57;2.13;;;;;;;;;;4983183;28;20029;-73
2022/05/28 03:55:42;;;;;;;17.65;3.10;;;;;;;;;;4994220;28;20038;-70
2022/05/28 03:58:07;;;;;;;14.85;2.75;;;;;;;;;;4994886;28;20038;-71
2022/05/28 04:00:33;;;;;;;23.42;3.15;;;;;;;;;;4987109;28;20077;-66
2022/05/28 04:02:58;;;;;;;16.13;2.65;;;;;;;;;;4986368;28;20034;-72
2022/05/28 04:05:24;;;;;;;15.38;1.95;;;;;;;;;;4985173;28;20055;-71
2022/05/28 04:07:53;;;;;;;14.68;2.55;;;;;;;;;;4984857;28;20044;-70
2022/05/28 04:10:18;;;;;;;13.05;2.50;;;;;;;;;;4994710;28;20029;-69
2022/05/28 04:12:51;;;;;;;16.75;2.40;;;;;;;;;;4987910;28;20496;-72
2022/05/28 04:15:19;;;;;;;19.17;2.63;;;;;;;;;;4985433;28;20100;-72
2022/05/28 04:17:44;;;;;;;24.40;2.88;;;;;;;;;;4991805;28;20477;-71
2022/05/28 04:20:10;;;;;;;21.15;2.58;;;;;;;;;;4968088;28;20072;-72
2022/05/28 04:22:35;;;;;;;17.25;2.20;;;;;;;;;;4987706;28;20518;-70
2022/05/28 04:25:03;;;;;;;15.18;2.20;;;;;;;;;;4992537;28;20606;-70
2022/05/28 04:27:28;;;;;;;16.25;2.42;;;;;;;;;;4985901;28;20672;-67
2022/05/28 04:29:54;;;;;;;15.48;2.45;;;;;;;;;;4989728;28;20026;-69
2022/05/28 04:32:19;;;;;;;14.70;2.33;;;;;;;;;;4995438;28;20026;-71
2022/05/28 04:34:47;;;;;;;19.35;2.70;;;;;;;;;;5011292;28;20330;-69
2022/05/28 04:37:12;;;;;;;14.80;2.15;;;;;;;;;;4991483;28;20529;-71
2022/05/28 04:39:37;;;;;;;14.98;2.25;;;;;;;;;;4987211;28;20061;-69
2022/05/28 04:42:05;;;;;;;16.85;2.65;;;;;;;;;;4998194;28;20049;-70
2022/05/28 04:44:31;;;;;;;13.40;2.00;;;;;;;;;;4979684;28;20043;-70
2022/05/28 04:46:56;;;;;;;14.95;2.63;;;;;;;;;;4989889;28;20272;-69
2022/05/28 04:49:21;;;;;;;15.38;2.35;;;;;;;;;;4995334;28;20041;-70
2022/05/28 04:51:47;;;;;;;16.73;2.67;;;;;;;;;;4978734;28;20041;-70
2022/05/28 04:54:13;;;;;;;17.23;2.30;;;;;;;;;;4989449;28;23730;-71
2022/05/28 04:56:38;;;;;;;18.25;2.90;;;;;;;;;;4983183;28;20127;-70
2022/05/28 04:59:06;;;;;;;17.40;2.65;;;;;;;;;;4997817;28;20522;-69
2022/05/28 05:01:31;;;;;;;12.65;1.90;;;;;;;;;;4978981;28;20058;-70
2022/05/28 05:03:56;;;;;;;11.52;2.03;;;;;;;;;;4955463;28;20265;-70
2022/05/28 05:06:21;;;;;;;12.07;2.38;;;;;;;;;;4985607;28;20306;-69
2022/05/28 05:08:49;;;;;;;14.32;2.40;;;;;;;;;;4990795;28;20116;-70
2022/05/28 05:11:16;;;;;;;13.40;2.15;;;;;;;;;;4988581;28;20042;-69
2022/05/28 05:13:42;;;;;;;19.80;2.30;;;;;;;;;;4986181;28;20053;-69
2022/05/28 05:16:11;;;;;;;14.90;2.08;;;;;;;;;;4988496;28;20038;-71
2022/05/28 05:18:37;;;;;;;15.73;2.30;;;;;;;;;;4991860;28;20037;-71
2022/05/28 05:21:08;;;;;;;14.07;2.45;;;;;;;;;;4978959;28;20092;-71
2022/05/28 05:23:33;;;;;;;13.13;2.00;;;;;;;;;;4981183;28;20154;-71
2022/05/28 05:25:59;;;;;;;14.77;2.20;;;;;;;;;;4984199;28;20041;-71
2022/05/28 05:28:25;;;;;;;14.00;1.90;;;;;;;;;;4982621;28;20278;-70
2022/05/28 05:30:50;;;;;;;13.25;2.65;;;;;;;;;;4986223;28;20080;-70
2022/05/28 05:33:16;;;;;;;11.48;2.30;;;;;;;;;;4977950;28;20053;-72
2022/05/28 05:35:41;;;;;;;12.90;2.60;;;;;;;;;;4949678;28;20064;-71
2022/05/28 05:38:08;;;;;;;16.17;2.40;;;;;;;;;;4982202;28;20049;-67
2022/05/28 05:40:34;;;;;;;13.13;2.10;;;;;;;;;;4978102;28;20043;-69
2022/05/28 05:43:01;;;;;;;14.35;2.45;;;;;;;;;;4981781;28;20114;-71
2022/05/28 05:45:27;;;;;;;16.38;2.95;;;;;;;;;;4976466;28;20045;-70
2022/05/28 05:47:53;;;;;;;11.82;2.63;;;;;;;;;;4977205;28;20045;-69
2022/05/28 05:50:19;;;;;;;19.30;2.75;;;;;;;;;;4987001;28;20034;-70
2022/05/28 05:52:44;;;;;;;14.30;2.50;;;;;;;;;;4978023;28;20037;-70
2022/05/28 05:55:09;;;;;;;15.32;2.45;;;;;;;;;;4979479;28;20030;-67
2022/05/28 05:57:35;;;;;;;13.65;2.33;;;;;;;;;;4978542;28;20038;-71
2022/05/28 06:00:00;;;;;;;12.45;2.70;;;;;;;;;;4976582;28;20409;-69
2022/05/28 06:02:27;;;;;;;12.23;1.95;;;;;;;;;;4974226;28;22426;-72
2022/05/28 06:04:53;;;;;;;19.17;3.17;;;;;;;;;;4986326;28;20125;-68
2022/05/28 06:07:21;;;;;;;13.13;2.40;;;;;;;;;;4975905;28;20104;-69
2022/05/28 06:09:49;;;;;;;14.88;2.63;;;;;;;;;;4973993;28;20089;-67
2022/05/28 06:12:14;;;;;;;17.63;2.47;;;;;;;;;;4991525;28;20040;-68
2022/05/28 06:14:40;;;;;;;14.93;2.50;;;;;;;;;;4996167;28;20034;-68
2022/05/28 06:17:07;;;;;;;14.57;2.65;;;;;;;;;;4996324;28;20033;-68
2022/05/28 06:19:32;;;;;;;16.10;2.05;;;;;;;;;;5006313;28;20067;-70
2022/05/28 06:21:58;;;;;;;21.13;3.13;;;;;;;;;;5007341;28;20945;-67
2022/05/28 06:24:24;;;;;;;16.45;2.65;;;;;;;;;;4995831;28;20029;-66
2022/05/28 06:26:49;;;;;;;17.67;2.53;;;;;;;;;;4990896;28;20844;-69
2022/05/28 06:29:14;;;;;;;22.35;3.17;;;;;;;;;;4990875;28;20562;-69
2022/05/28 06:31:40;;;;;;;16.77;2.42;;;;;;;;;;4982723;28;20499;-68
2022/05/28 06:34:05;;;;;;;15.00;2.95;;;;;;;;;;4991576;28;20358;-67
2022/05/28 06:36:31;;;;;;;14.50;2.47;;;;;;;;;;4998031;28;22194;-67
2022/05/28 06:38:57;;;;;;;11.57;1.95;;;;;;;;;;4974316;28;20155;-68
2022/05/28 06:41:23;;;;;;;14.95;2.25;;;;;;;;;;4995564;28;20052;-68
2022/05/28 06:43:48;;;;;;;13.93;2.53;;;;;;;;;;4992284;28;20138;-67
2022/05/28 06:46:14;;;;;;;18.10;3.25;;;;;;;;;;4992116;28;20205;-68
2022/05/28 06:48:39;;;;;;;15.43;2.67;;;;;;;;;;4988567;28;20112;-68
2022/05/28 06:51:05;;;;;;;9.85;2.20;;;;;;;;;;4991537;28;20052;-70
2022/05/28 06:53:36;;;;;;;13.10;2.53;;;;;;;;;;4992481;28;20049;-70
2022/05/28 06:56:02;;;;;;;14.90;2.45;;;;;;;;;;4991945;28;20103;-68
2022/05/28 06:58:27;;;;;;;14.00;2.63;;;;;;;;;;4991293;28;21152;-67
2022/05/28 07:00:53;;;;;;;14.00;2.47;;;;;;;;;;4996928;28;20060;-71
2022/05/28 07:03:19;;;;;;;20.10;2.97;;;;;;;;;;4986785;28;20944;-71
2022/05/28 07:05:47;;;;;;;16.60;2.50;;;;;;;;;;4994079;28;20112;-71
2022/05/28 07:08:13;;;;;;;10.63;2.00;;;;;;;;;;4990163;28;20057;-70
2022/05/28 07:10:41;;;;;;;13.88;2.33;;;;;;;;;;4986660;28;20033;-70
2022/05/28 07:13:07;;;;;;;16.77;2.92;;;;;;;;;;4976919;28;20022;-70
2022/05/28 07:15:32;;;;;;;10.30;2.42;;;;;;;;;;4977772;28;20025;-69
2022/05/28 07:17:57;;;;;;;12.77;2.45;;;;;;;;;;4996677;28;20099;-70
2022/05/28 07:20:22;;;;;;;15.38;2.92;;;;;;;;;;4995522;28;20084;-70
2022/05/28 07:22:48;;;;;;;14.35;2.83;;;;;;;;;;4990615;28;20136;-71
2022/05/28 07:25:13;;;;;;;14.15;3.00;;;;;;;;;;5003545;28;20404;-72
2022/05/28 07:27:38;;;;;;;12.50;2.58;;;;;;;;;;4988604;28;20672;-69
2022/05/28 07:30:04;;;;;;;16.75;2.67;;;;;;;;;;4986026;28;20025;-71
2022/05/28 07:32:30;;;;;;;15.77;2.45;;;;;;;;;;4981310;28;20030;-70
2022/05/28 07:34:56;;;;;;;11.57;2.50;;;;;;;;;;4967344;28;20072;-71
2022/05/28 07:37:25;;;;;;;14.43;2.58;;;;;;;;;;4970309;28;20038;-71
2022/05/28 07:39:50;;;;;;;10.68;2.30;;;;;;;;;;4988614;28;20073;-70
2022/05/28 07:42:16;;;;;;;17.48;3.08;;;;;;;;;;4991951;28;20037;-71
2022/05/28 07:44:41;;;;;;;10.43;2.30;;;;;;;;;;4989848;28;20545;-72
2022/05/28 07:47:07;;;;;;;12.60;2.53;;;;;;;;;;4973360;28;20131;-70
2022/05/28 07:49:34;;;;;;;12.48;2.55;;;;;;;;;;4988181;28;20021;-70
2022/05/28 07:51:59;;;;;;;20.63;2.88;;;;;;;;;;4988997;28;20898;-71
2022/05/28 07:54:28;;;;;;;17.90;2.80;;;;;;;;;;4986244;28;20041;-68
2022/05/28 07:56:54;;;;;;;10.32;1.90;;;;;;;;;;4990243;28;20039;-67
2022/05/28 07:59:19;;;;;;;18.80;2.75;;;;;;;;;;4991153;28;20148;-72
2022/05/28 08:01:45;;;;;;;18.92;2.70;;;;;;;;;;4982716;28;20072;-71
2022/05/28 08:04:11;;;;;;;12.00;2.65;;;;;;;;;;4990470;28;20204;-71
2022/05/28 08:06:37;;;;;;;16.10;2.50;;;;;;;;;;4979296;28;20041;-69
2022/05/28 08:09:05;;;;;;;15.98;2.50;;;;;;;;;;4973765;28;21045;-71
2022/05/28 08:11:31;;;;;;;11.43;2.70;;;;;;;;;;4978525;28;20037;-71
2022/05/28 08:13:56;;;;;;;15.93;2.55;;;;;;;;;;4965557;28;21072;-72
2022/05/28 08:16:22;;;;;;;21.52;3.10;;;;;;;;;;4975147;28;20034;-71
2022/05/28 08:18:48;;;;;;;14.48;2.80;;;;;;;;;;4975207;28;20869;-68
2022/05/28 08:23:57;;;;;;;17.70;2.70;;;;;;;;;;4982596;28;20846;-71
2022/05/28 08:26:24;;;;;;;17.38;2.50;;;;;;;;;;4977370;28;20025;-71
2022/05/28 08:28:49;;;;;;;14.93;2.65;;;;;;;;;;4987841;28;20040;-71
2022/05/28 08:31:15;;;;;;;16.83;3.20;;;;;;;;;;4972983;28;20064;-72
2022/05/28 08:33:41;;;;;;;12.98;2.70;;;;;;;;;;4971655;28;20143;-69
2022/05/28 08:36:07;;;;;;;12.45;2.10;;;;;;;;;;4975901;28;20104;-70
2022/05/28 08:38:39;;;;;;;14.85;3.03;;;;;;;;;;4974242;28;20046;-69
2022/05/28 08:41:07;;;;;;;15.13;2.50;;;;;;;;;;4971101;28;20042;-67
2022/05/28 08:43:34;;;;;;;15.00;2.40;;;;;;;;;;4971703;28;20041;-67
2022/05/28 08:46:10;;;;;;;12.02;2.53;;;;;;;;;;4980375;28;20041;-68
2022/05/28 08:48:44;;;;;;;13.68;2.00;;;;;;;;;;4971588;28;20100;-69
2022/05/28 08:51:16;;;;;;;10.57;2.50;;;;;;;;;;4986147;28;20037;-69
2022/05/28 08:53:41;;;;;;;;;;;;;;;;;;4992034;28;20037;-69
2022/05/28 08:56:11;;;;;;;15.83;2.60;;;;;;;;;;4990503;28;19913;-67
2022/05/28 08:58:40;;;;;;;17.08;2.78;;;;;;;;;;4998616;28;20292;-71
2022/05/28 09:01:09;;;;;;;18.00;3.20;;;;;;;;;;4975616;28;20073;-70
2022/05/28 09:03:42;;;;;;;21.20;3.45;;;;;;;;;;4943259;28;20041;-67
2022/05/28 09:06:19;;;;;;;18.58;2.70;;;;;;;;;;4970815;28;20037;-67
2022/05/28 09:08:48;;;;;;;14.95;2.67;;;;;;;;;;4989592;28;20029;-68
2022/05/28 09:11:15;;;;;;;20.08;3.42;;;;;;;;;;4991980;28;20095;-69
2022/05/28 09:13:48;;;;;;;20.30;3.08;;;;;;;;;;4971232;28;20042;-65
2022/05/28 09:16:24;;;;;;;14.65;2.53;;;;;;;;;;4971236;28;20827;-66
2022/05/28 09:18:50;;;;;;;16.88;2.78;;;;;;;;;;4966497;28;20045;-67
2022/05/28 09:21:18;;;;;;;14.02;2.30;;;;;;;;;;4980115;28;20052;-64
2022/05/28 09:23:46;;;;;;;19.27;2.72;;;;;;;;;;4970709;28;20037;-66
2022/05/28 09:26:13;;;;;;;21.15;3.30;;;;;;;;;;4973900;28;20063;-65
2022/05/28 09:28:47;;;;;;;10.43;2.30;;;;;;;;;;4980351;28;20160;-65
2022/05/28 09:31:27;;;;;;;15.85;2.50;;;;;;;;;;4972318;28;20619;-67
2022/05/28 09:34:04;;;;;;;17.23;2.63;;;;;;;;;;4968381;28;20053;-67
2022/05/28 09:36:40;;;;;;;16.20;2.53;;;;;;;;;;4965985;28;20042;-66
2022/05/28 09:39:25;;;;;;;21.75;3.38;;;;;;;;;;4986310;28;20046;-67
2022/05/28 09:41:55;;;;;;;15.63;2.70;;;;;;;;;;4972774;28;20037;-67
2022/05/28 09:44:20;;;;;;;19.25;3.17;;;;;;;;;;4971061;28;20041;-65
2022/05/28 09:46:45;;;;;;;14.48;2.67;;;;;;;;;;4973700;28;20038;-64
2022/05/28 09:49:18;;;;;;;16.52;2.95;;;;;;;;;;4968969;28;20115;-66
2022/05/28 09:52:19;;;;;;;19.23;2.95;;;;;;;;;;4972519;28;20037;-65
2022/05/28 09:54:44;;;;;;;16.55;3.03;;;;;;;;;;4933623;28;20049;-66
2022/05/28 09:57:11;;;;;;;20.67;3.08;;;;;;;;;;4979433;28;20033;-66
2022/05/28 09:59:49;;;;;;;17.48;2.80;;;;;;;;;;4980163;28;20083;-67
2022/05/28 10:02:14;;;;;;;15.23;2.72;;;;;;;;;;4972188;28;20501;-64
2022/05/28 10:04:45;;;;;;;17.77;2.75;;;;;;;;;;4970315;28;20025;-64
2022/05/28 10:07:13;;;;;;;15.18;2.28;;;;;;;;;;4972916;28;20054;-65
2022/05/28 10:09:48;;;;;;;18.75;3.03;;;;;;;;;;4986026;28;20041;-68
2022/05/28 10:12:20;;;;;;;19.92;3.00;;;;;;;;;;4972301;28;20042;-67
2022/05/28 10:14:56;;;;;;;23.70;2.63;;;;;;;;;;4971939;28;20030;-66
2022/05/28 10:17:27;;;;;;;22.40;3.30;;;;;;;;;;4978493;28;20601;-68
2022/05/28 10:19:56;;;;;;;20.42;2.78;;;;;;;;;;4974400;28;20089;-66
2022/05/28 10:22:23;;;;;;;25.60;2.95;;;;;;;;;;4971164;28;20092;-64
2022/05/28 10:24:53;;;;;;;17.95;3.03;;;;;;;;;;4972948;28;20041;-66
2022/05/28 10:27:33;;;;;;;22.70;2.95;;;;;;;;;;4968150;28;20069;-65
2022/05/28 10:30:02;;;;;;;16.58;3.20;;;;;;;;;;4969392;28;20046;-67
2022/05/28 10:32:48;;;;;;;19.90;2.83;;;;;;;;;;4967621;28;20294;-67
2022/05/28 10:35:24;;;;;;;18.45;3.00;;;;;;;;;;4970430;28;20042;-65
2022/05/28 10:37:50;;;;;;;19.17;2.97;;;;;;;;;;4968141;28;20049;-65
2022/05/28 10:40:15;;;;;;;24.90;2.70;;;;;;;;;;4969343;28;20065;-66
2022/05/28 10:42:40;;;;;;;18.05;2.83;;;;;;;;;;4968879;28;20526;-67
2022/05/28 10:45:07;;;;;;;17.48;2.83;;;;;;;;;;4950747;28;20668;-67
2022/05/28 10:47:48;;;;;;;18.25;2.67;;;;;;;;;;4966169;28;20698;-66
2022/05/28 10:50:18;;;;;;;21.52;2.88;;;;;;;;;;4979477;28;20449;-64
2022/05/28 10:52:44;;;;;;;15.68;2.58;;;;;;;;;;4988976;28;20045;-66
2022/05/28 10:55:13;;;;;;;15.68;2.65;;;;;;;;;;5003200;28;20029;-67
2022/05/28 10:57:51;;;;;;;15.85;2.58;;;;;;;;;;4972792;28;20661;-65
2022/05/28 11:00:23;;;;;;;14.63;2.65;;;;;;;;;;4963953;28;20545;-65
2022/05/28 11:03:04;;;;;;;16.38;2.33;;;;;;;;;;4973075;28;20038;-66
2022/05/28 11:05:29;;;;;;;10.65;2.05;;;;;;;;;;4966316;28;20096;-66
2022/05/28 11:07:57;;;;;;;15.43;2.88;;;;;;;;;;4965944;28;20057;-68
2022/05/28 11:10:22;;;;;;;15.93;2.53;;;;;;;;;;4981930;28;20144;-67
2022/05/28 11:12:56;;;;;;;13.32;2.38;;;;;;;;;;4965637;28;20046;-65
2022/05/28 11:15:28;;;;;;;23.13;2.88;;;;;;;;;;4964975;28;20041;-66
2022/05/28 11:17:53;;;;;;;;;;;;;;;;;;4986053;28;20985;-66
2022/05/28 11:20:22;;;;;;;17.45;2.90;;;;;;;;;;4991623;28;20307;-65
2022/05/28 11:23:16;;;;;;;12.25;2.28;;;;;;;;;;4952431;28;20033;-66
2022/05/28 11:25:56;;;;;;;15.25;2.50;;;;;;;;;;4954517;28;20635;-64
2022/05/28 11:28:24;;;;;;;14.95;2.83;;;;;;;;;;4971846;28;20034;-69
2022/05/28 11:30:51;;;;;;;17.15;2.42;;;;;;;;;;4968568;28;20310;-65
2022/05/28 11:33:21;;;;;;;19.70;2.70;;;;;;;;;;4971179;28;20100;-65
2022/05/28 11:36:01;;;;;;;19.52;2.70;;;;;;;;;;4991768;28;20048;-64
2022/05/28 11:38:29;;;;;;;15.90;2.63;;;;;;;;;;4990451;28;20519;-64
2022/05/28 11:41:01;;;;;;;20.45;2.58;;;;;;;;;;4991574;28;20687;-65
2022/05/28 11:43:29;;;;;;;14.82;2.78;;;;;;;;;;4992295;28;20306;-65
2022/05/28 11:46:13;;;;;;;15.32;2.45;;;;;;;;;;4993553;28;20647;-65
2022/05/28 11:51:29;;;;;;;19.67;2.85;;;;;;;;;;4989026;28;20052;-64
2022/05/28 11:54:10;;;;;;;16.50;2.47;;;;;;;;;;4981706;28;20029;-66
2022/05/28 11:56:37;;;;;;;12.40;2.05;;;;;;;;;;4966785;28;20887;-65
2022/05/28 11:59:12;;;;;;;20.45;2.60;;;;;;;;;;4968248;28;20104;-66
2022/05/28 12:01:53;;;;;;;19.77;2.92;;;;;;;;;;4969760;28;20204;-65
2022/05/28 12:04:19;;;;;;;15.02;2.58;;;;;;;;;;4990296;28;20030;-68
2022/05/28 12:07:08;;;;;;;17.92;2.72;;;;;;;;;;4971958;28;20045;-67
2022/05/28 12:09:34;;;;;;;22.95;3.40;;;;;;;;;;4975456;28;20038;-65
2022/05/28 12:12:08;;;;;;;21.25;3.40;;;;;;;;;;4990321;28;20156;-64
2022/05/28 12:14:37;;;;;;;14.80;3.33;;;;;;;;;;4984117;28;20039;-65
2022/05/28 12:17:22;;;;;;;15.73;2.20;;;;;;;;;;4990908;28;20033;-66
2022/05/28 12:19:55;;;;;;;16.95;2.78;;;;;;;;;;4987998;28;22340;-66
2022/05/28 12:22:22;;;;;;;17.83;2.67;;;;;;;;;;4989955;28;20086;-65
2022/05/28 12:24:56;;;;;;;23.55;2.88;;;;;;;;;;4990679;28;20835;-64
2022/05/28 12:27:34;;;;;;;16.45;2.90;;;;;;;;;;4991157;28;20081;-67
2022/05/28 12:30:07;;;;;;;13.52;2.38;;;;;;;;;;4989214;28;21001;-66
2022/05/28 12:32:44;;;;;;;19.55;2.60;;;;;;;;;;4989663;28;20506;-65
2022/05/28 12:35:23;;;;;;;18.73;2.55;;;;;;;;;;4985849;28;20045;-64
2022/05/28 12:37:54;;;;;;;17.60;2.60;;;;;;;;;;4992104;28;20135;-65
2022/05/28 12:40:39;;;;;;;20.23;3.17;;;;;;;;;;5003489;28;21871;-68
2022/05/28 12:43:24;;;;;;;21.33;2.58;;;;;;;;;;4989754;28;20258;-67
2022/05/28 12:45:50;;;;;;;23.83;3.22;;;;;;;;;;4986739;28;20076;-68
2022/05/28 12:48:20;;;;;;;17.73;2.95;;;;;;;;;;4988190;28;20033;-67
2022/05/28 12:50:51;;;;;;;16.40;2.95;;;;;;;;;;4989467;28;20037;-67
2022/05/28 12:53:18;;;;;;;19.60;2.75;;;;;;;;;;4989648;28;20041;-68
2022/05/28 12:55:43;;;;;;;14.93;2.20;;;;;;;;;;4988169;28;22658;-65
2022/05/28 12:58:11;;;;;;;17.80;2.67;;;;;;;;;;4978026;28;20144;-67
2022/05/28 13:00:48;;;;;;;18.88;2.88;;;;;;;;;;4968166;28;20909;-66
2022/05/28 13:03:15;;;;;;;20.73;2.90;;;;;;;;;;4970591;28;20026;-69
2022/05/28 13:05:43;;;;;;;17.30;2.33;;;;;;;;;;4971379;28;20155;-68
2022/05/28 13:08:10;;;;;;;17.75;2.65;;;;;;;;;;4958808;28;20791;-65
2022/05/28 13:10:35;;;;;;;15.10;2.30;;;;;;;;;;4968959;28;20073;-64
2022/05/28 13:13:07;;;;;;;18.58;2.55;;;;;;;;;;4950578;28;21005;-66
2022/05/28 13:15:49;;;;;;;15.00;2.55;;;;;;;;;;4975180;28;20034;-65
2022/05/28 13:18:27;;;;;;;20.88;2.88;;;;;;;;;;4976161;28;20137;-65
2022/05/28 13:20:55;;;;;;;22.73;2.90;;;;;;;;;;4971473;28;20767;-65
2022/05/28 13:23:36;;;;;;;18.90;2.78;;;;;;;;;;4973519;28;20211;-65
2022/05/28 13:26:16;;;;;;;23.97;3.00;;;;;;;;;;4986286;28;20037;-63
2022/05/28 13:28:47;;;;;;;10.68;2.28;;;;;;;;;;4970801;28;20033;-63
2022/05/28 13:31:17;;;;;;;13.13;2.28;;;;;;;;;;4971637;28;21920;-64
2022/05/28 13:33:45;;;;;;;17.25;2.78;;;;;;;;;;4971012;28;20454;-64
2022/05/28 13:36:14;;;;;;;13.68;2.53;;;;;;;;;;4971840;28;20053;-63
2022/05/28 13:38:47;;;;;;;20.25;2.90;;;;;;;;;;4972651;28;20045;-64
2022/05/28 13:41:17;;;;;;;15.43;2.40;;;;;;;;;;4971153;28;20045;-65
2022/05/28 13:43:47;;;;;;;14.38;2.10;;;;;;;;;;4966354;28;20799;-65
2022/05/28 13:46:14;;;;;;;15.90;2.45;;;;;;;;;;4969691;28;20033;-67
2022/05/28 13:48:48;;;;;;;14.98;2.42;;;;;;;;;;4970193;28;20112;-64
2022/05/28 13:51:16;;;;;;;17.67;2.88;;;;;;;;;;4972950;28;20026;-65
2022/05/28 13:53:44;;;;;;;16.52;2.78;;;;;;;;;;4976088;28;20069;-66
2022/05/28 13:56:15;;;;;;;13.45;2.40;;;;;;;;;;4969770;28;20034;-64
2022/05/28 13:58:41;;;;;;;;;;;;;;;;;;4971934;28;20128;-63
2022/05/28 14:01:08;;;;;;;20.35;3.17;;;;;;;;;;4972884;28;19998;-66
2022/05/28 14:03:34;;;;;;;15.82;2.30;;;;;;;;;;4972716;28;20038;-63
2022/05/28 14:06:00;;;;;;;23.05;2.95;;;;;;;;;;4972497;28;20172;-64
2022/05/28 14:08:36;;;;;;;17.85;2.58;;;;;;;;;;4972226;28;20033;-65
2022/05/28 14:11:06;;;;;;;23.83;2.65;;;;;;;;;;4972303;28;20042;-64
2022/05/28 14:13:33;;;;;;;19.33;3.00;;;;;;;;;;4972635;28;20038;-65
2022/05/28 14:15:58;;;;;;;15.48;2.58;;;;;;;;;;4972584;28;20077;-64
2022/05/28 14:18:29;;;;;;;15.98;2.45;;;;;;;;;;4973150;28;20669;-65
2022/05/28 14:21:04;;;;;;;15.23;2.63;;;;;;;;;;4970748;28;20149;-65
2022/05/28 14:23:29;;;;;;;17.05;2.83;;;;;;;;;;4973393;28;20034;-66
2022/05/28 14:25:55;;;;;;;20.15;2.63;;;;;;;;;;4974135;28;20061;-65
2022/05/28 14:28:21;;;;;;;17.55;2.63;;;;;;;;;;4972072;28;20034;-64
2022/05/28 14:30:47;;;;;;;22.10;2.95;;;;;;;;;;4976253;28;20033;-65
2022/05/28 14:33:25;;;;;;;16.73;2.42;;;;;;;;;;4969188;28;20076;-65
2022/05/28 14:35:53;;;;;;;23.05;3.20;;;;;;;;;;4968363;28;20045;-65
2022/05/28 14:38:27;;;;;;;20.00;2.53;;;;;;;;;;4967922;28;20071;-64
2022/05/28 14:40:58;;;;;;;15.95;2.10;;;;;;;;;;4968747;28;20187;-63
2022/05/28 14:43:24;;;;;;;;;;;;;;;;;;4988169;28;20030;-66
2022/05/28 14:45:50;;;;;;;23.27;3.10;;;;;;;;;;4982366;28;19914;-65